createdAt,value
2019-04-30T00:01:59.134Z,7.70
2019-04-30T00:04:29.827Z,7.70
2019-04-30T00:06:55.754Z,7.70
2019-04-30T00:09:25.069Z,7.60
2019-04-30T00:11:57.908Z,7.60
2019-04-30T00:14:19.704Z,7.60
2019-04-30T00:16:45.960Z,7.60
2019-04-30T00:19:17.881Z,7.60
2019-04-30T00:21:40.430Z,7.60
2019-04-30T00:24:10.256Z,7.60
2019-04-30T00:26:35.484Z,7.60
2019-04-30T00:29:01.772Z,7.50
2019-04-30T00:31:28.012Z,7.50
2019-04-30T00:33:57.950Z,7.50
2019-04-30T00:36:27.081Z,7.50
2019-04-30T00:38:50.826Z,7.50
2019-04-30T00:41:17.089Z,7.50
2019-04-30T00:43:49.366Z,7.50
2019-04-30T00:46:11.455Z,7.50
2019-04-30T00:48:37.678Z,7.50
2019-04-30T00:51:07.476Z,7.50
2019-04-30T00:53:32.062Z,7.50
2019-04-30T00:55:58.312Z,7.50
2019-04-30T00:58:30.084Z,7.50
2019-04-30T01:01:11.355Z,7.60
2019-04-30T01:03:46.447Z,7.60
2019-04-30T01:06:08.223Z,7.60
2019-04-30T01:08:35.838Z,7.60
2019-04-30T01:11:06.489Z,7.60
2019-04-30T01:13:30.841Z,7.60
2019-04-30T01:15:58.800Z,7.60
2019-04-30T01:18:28.530Z,7.60
2019-04-30T01:20:53.388Z,7.60
2019-04-30T01:23:19.916Z,7.60
2019-04-30T01:25:49.918Z,7.60
2019-04-30T01:28:16.482Z,7.60
2019-04-30T01:30:44.353Z,7.60
2019-04-30T01:33:10.812Z,7.60
2019-04-30T01:35:38.212Z,7.60
2019-04-30T01:38:11.135Z,7.60
2019-04-30T01:40:35.994Z,7.60
2019-04-30T01:43:02.225Z,7.60
2019-04-30T01:45:31.569Z,7.60
2019-04-30T01:48:00.583Z,7.60
2019-04-30T01:50:26.270Z,7.60
2019-04-30T01:52:52.499Z,7.60
2019-04-30T01:55:22.536Z,7.60
2019-04-30T01:57:53.391Z,7.60
2019-04-30T02:00:21.651Z,7.70
2019-04-30T02:02:49.524Z,7.60
2019-04-30T02:05:15.946Z,7.70
2019-04-30T02:07:42.268Z,7.70
2019-04-30T02:10:09.121Z,7.70
2019-04-30T02:12:35.329Z,7.70
2019-04-30T02:15:01.559Z,7.70
2019-04-30T02:17:29.298Z,7.70
2019-04-30T02:19:56.979Z,7.70
2019-04-30T02:22:23.822Z,7.70
2019-04-30T02:24:50.061Z,7.70
2019-04-30T02:27:16.286Z,7.70
2019-04-30T02:29:42.500Z,7.70
2019-04-30T02:32:10.170Z,7.70
2019-04-30T02:34:41.139Z,7.70
2019-04-30T02:37:23.403Z,7.70
2019-04-30T02:39:50.285Z,7.70
2019-04-30T02:42:20.158Z,7.70
2019-04-30T02:44:50.262Z,7.70
2019-04-30T02:47:20.521Z,7.70
2019-04-30T02:49:52.901Z,7.60
2019-04-30T02:52:19.551Z,7.60
2019-04-30T02:54:50.468Z,7.60
2019-04-30T02:57:16.779Z,7.60
2019-04-30T03:00:01.676Z,7.60
2019-04-30T03:02:29.360Z,7.60
2019-04-30T03:04:55.648Z,7.60
2019-04-30T03:07:21.891Z,7.60
2019-04-30T03:09:49.927Z,7.60
2019-04-30T03:12:16.297Z,7.60
2019-04-30T03:14:42.533Z,7.60
2019-04-30T03:17:10.683Z,7.60
2019-04-30T03:19:56.735Z,7.60
2019-04-30T03:22:24.877Z,7.60
2019-04-30T03:24:51.119Z,7.60
2019-04-30T03:27:17.385Z,7.60
2019-04-30T03:29:43.612Z,7.70
2019-04-30T03:32:13.177Z,7.60
2019-04-30T03:34:41.819Z,7.60
2019-04-30T03:37:06.120Z,7.60
2019-04-30T03:39:34.037Z,7.60
2019-04-30T03:42:00.480Z,7.60
2019-04-30T03:44:31.574Z,7.60
2019-04-30T03:46:54.909Z,7.60
2019-04-30T03:49:21.144Z,7.60
2019-04-30T03:51:49.693Z,7.60
2019-04-30T03:54:15.537Z,7.60
2019-04-30T03:56:42.597Z,7.60
2019-04-30T03:59:10.598Z,7.70
2019-04-30T04:01:44.856Z,7.70
2019-04-30T04:04:15.703Z,7.70
2019-04-30T04:06:55.749Z,7.60
2019-04-30T04:09:23.879Z,7.70
2019-04-30T04:11:51.014Z,7.60
2019-04-30T04:14:19.606Z,7.60
2019-04-30T04:17:00.720Z,7.60
2019-04-30T04:19:29.123Z,7.60
2019-04-30T04:21:55.091Z,7.70
2019-04-30T04:24:21.367Z,7.80
2019-04-30T04:26:50.227Z,7.90
2019-04-30T04:29:15.734Z,7.90
2019-04-30T04:31:41.982Z,7.90
2019-04-30T04:34:09.353Z,7.80
2019-04-30T04:36:35.671Z,7.80
2019-04-30T04:39:03.015Z,7.80
2019-04-30T04:41:29.626Z,7.80
2019-04-30T04:44:00.185Z,7.80
2019-04-30T04:46:26.356Z,7.80
2019-04-30T04:48:52.593Z,7.80
2019-04-30T04:51:33.262Z,7.80
2019-04-30T04:53:47.033Z,7.80
2019-04-30T04:56:13.243Z,7.70
2019-04-30T04:58:40.151Z,7.70
2019-04-30T05:01:09.038Z,7.70
2019-04-30T05:03:36.684Z,7.70
2019-04-30T05:06:03.143Z,7.80
2019-04-30T05:08:29.400Z,7.80
2019-04-30T05:10:55.753Z,7.80
2019-04-30T05:13:21.983Z,7.70
2019-04-30T05:15:51.272Z,7.70
2019-04-30T05:18:16.644Z,7.70
2019-04-30T05:20:42.883Z,7.70
2019-04-30T05:23:09.511Z,7.80
2019-04-30T05:25:35.865Z,7.70
2019-04-30T05:28:02.487Z,7.70
2019-04-30T05:30:29.536Z,7.70
2019-04-30T05:32:56.237Z,7.80
2019-04-30T05:35:22.492Z,7.70
2019-04-30T05:37:49.503Z,7.80
2019-04-30T05:40:15.971Z,7.80
2019-04-30T05:42:42.241Z,7.80
2019-04-30T05:45:09.453Z,7.80
2019-04-30T05:47:35.838Z,7.80
2019-04-30T05:50:04.509Z,7.80
2019-04-30T05:52:30.744Z,7.80
2019-04-30T05:54:58.512Z,7.80
2019-04-30T05:57:25.233Z,7.80
2019-04-30T05:59:51.638Z,7.80
2019-04-30T06:02:19.427Z,7.80
2019-04-30T06:04:46.046Z,7.90
2019-04-30T06:07:12.398Z,7.90
2019-04-30T06:09:40.539Z,7.80
2019-04-30T06:12:14.400Z,7.80
2019-04-30T06:14:48.940Z,7.80
2019-04-30T06:17:21.895Z,7.80
2019-04-30T06:19:48.790Z,7.80
2019-04-30T06:22:18.994Z,7.80
2019-04-30T06:24:45.302Z,7.80
2019-04-30T06:27:11.734Z,7.80
2019-04-30T06:29:39.060Z,7.80
2019-04-30T06:32:06.066Z,7.80
2019-04-30T06:34:33.033Z,7.80
2019-04-30T06:36:59.635Z,7.80
2019-04-30T06:39:26.294Z,7.80
2019-04-30T06:42:04.271Z,7.80
2019-04-30T06:44:34.533Z,7.80
2019-04-30T06:46:51.713Z,7.80
2019-04-30T06:49:19.536Z,7.80
2019-04-30T06:51:45.815Z,7.90
2019-04-30T06:54:12.146Z,7.90
2019-04-30T06:56:38.764Z,7.90
2019-04-30T06:59:05.222Z,7.90
2019-04-30T07:01:32.493Z,7.90
2019-04-30T07:04:00.740Z,7.90
2019-04-30T07:06:31.848Z,7.90
2019-04-30T07:08:59.733Z,8.00
2019-04-30T07:11:29.296Z,8.00
2019-04-30T07:13:55.723Z,8.00
2019-04-30T07:16:21.972Z,8.00
2019-04-30T07:18:48.990Z,8.10
2019-04-30T07:21:15.347Z,8.00
2019-04-30T07:23:41.673Z,8.00
2019-04-30T07:26:09.050Z,8.00
2019-04-30T07:28:44.815Z,8.00
2019-04-30T07:31:11.698Z,8.00
2019-04-30T07:33:31.981Z,8.00
2019-04-30T07:36:01.450Z,8.10
2019-04-30T07:38:26.346Z,8.10
2019-04-30T07:40:52.589Z,8.10
2019-04-30T07:43:19.104Z,8.10
2019-04-30T07:45:45.368Z,8.20
2019-04-30T07:48:11.598Z,8.20
2019-04-30T07:50:40.423Z,8.20
2019-04-30T07:53:07.363Z,8.20
2019-04-30T07:55:34.520Z,8.20
2019-04-30T07:58:00.745Z,8.20
2019-04-30T08:00:31.014Z,8.20
2019-04-30T08:05:49.917Z,8.30
2019-04-30T08:08:21.707Z,8.30
2019-04-30T08:10:44.815Z,8.40
2019-04-30T08:13:14.937Z,8.30
2019-04-30T08:15:42.154Z,8.30
2019-04-30T08:18:08.728Z,8.30
2019-04-30T08:20:35.096Z,8.40
2019-04-30T08:23:13.338Z,8.40
2019-04-30T08:25:29.769Z,8.40
2019-04-30T08:27:55.999Z,8.40
2019-04-30T08:30:26.708Z,8.40
2019-04-30T08:32:50.415Z,8.40
2019-04-30T08:35:17.047Z,8.40
2019-04-30T08:37:43.289Z,8.40
2019-04-30T08:40:09.626Z,8.40
2019-04-30T08:42:37.867Z,8.50
2019-04-30T08:45:06.694Z,8.50
2019-04-30T08:47:32.929Z,8.50
2019-04-30T08:50:02.473Z,8.60
2019-04-30T08:52:27.451Z,8.60
2019-04-30T08:54:53.778Z,8.60
2019-04-30T08:57:20.106Z,8.70
2019-04-30T08:59:46.777Z,8.70
2019-04-30T09:02:16.367Z,8.80
2019-04-30T09:04:41.276Z,8.80
2019-04-30T09:07:10.133Z,8.80
2019-04-30T09:09:35.680Z,8.80
2019-04-30T09:12:01.914Z,8.80
2019-04-30T09:14:29.730Z,8.90
2019-04-30T09:16:56.312Z,8.90
2019-04-30T09:19:22.542Z,8.90
2019-04-30T09:21:48.967Z,9.00
2019-04-30T09:24:15.340Z,9.00
2019-04-30T09:26:41.581Z,9.10
2019-04-30T09:29:09.333Z,9.10
2019-04-30T09:31:35.728Z,9.10
2019-04-30T09:34:13.774Z,9.20
2019-04-30T09:36:30.156Z,9.30
2019-04-30T09:38:58.794Z,9.30
2019-04-30T09:41:24.558Z,9.30
2019-04-30T09:43:50.787Z,9.30
2019-04-30T09:46:24.542Z,9.40
2019-04-30T09:48:45.188Z,9.40
2019-04-30T09:51:11.975Z,9.40
2019-04-30T09:53:39.539Z,9.40
2019-04-30T09:56:06.217Z,9.40
2019-04-30T09:58:32.473Z,9.40
2019-04-30T10:00:59.357Z,9.40
2019-04-30T10:03:27.217Z,9.40
2019-04-30T10:05:53.620Z,9.50
2019-04-30T10:08:20.979Z,9.50
2019-04-30T10:11:05.287Z,9.60
2019-04-30T10:13:31.555Z,9.60
2019-04-30T10:15:59.695Z,9.70
2019-04-30T10:18:25.947Z,9.80
2019-04-30T10:20:53.518Z,9.90
2019-04-30T10:23:19.915Z,10.10
2019-04-30T10:25:46.543Z,10.30
2019-04-30T10:28:13.305Z,10.70
2019-04-30T10:30:39.570Z,11.00
2019-04-30T10:33:06.092Z,11.20
2019-04-30T10:35:32.620Z,11.40
2019-04-30T10:37:59.563Z,11.50
2019-04-30T10:40:28.569Z,11.60
2019-04-30T10:42:54.839Z,11.60
2019-04-30T10:45:21.374Z,11.60
2019-04-30T10:47:49.206Z,11.60
2019-04-30T10:50:16.210Z,11.50
2019-04-30T10:52:43.230Z,11.50
2019-04-30T10:55:09.877Z,11.50
2019-04-30T10:57:36.627Z,11.50
2019-04-30T11:00:10.124Z,11.50
2019-04-30T11:02:38.622Z,11.70
2019-04-30T11:05:06.375Z,11.70
2019-04-30T11:07:35.034Z,11.90
2019-04-30T11:10:06.593Z,11.90
2019-04-30T11:12:33.058Z,11.90
2019-04-30T11:14:59.313Z,11.90
2019-04-30T11:17:25.717Z,12.00
2019-04-30T11:19:52.417Z,12.00
2019-04-30T11:22:18.996Z,12.10
2019-04-30T11:24:56.600Z,12.20
2019-04-30T11:27:14.290Z,12.20
2019-04-30T11:29:41.129Z,12.20
2019-04-30T11:32:09.524Z,12.30
2019-04-30T11:34:38.172Z,12.40
2019-04-30T11:37:04.717Z,12.50
2019-04-30T11:39:31.071Z,12.50
2019-04-30T11:41:57.294Z,12.50
2019-04-30T11:44:30.803Z,12.40
2019-04-30T11:47:06.567Z,12.30
2019-04-30T11:49:32.782Z,12.20
2019-04-30T11:51:59.008Z,12.10
2019-04-30T11:54:25.366Z,12.00
2019-04-30T11:56:51.621Z,12.00
2019-04-30T11:59:19.561Z,12.10
2019-04-30T12:01:47.199Z,12.30
2019-04-30T12:04:13.574Z,12.50
2019-04-30T12:06:39.822Z,12.70
2019-04-30T12:09:12.063Z,12.80
2019-04-30T12:11:40.224Z,12.90
2019-04-30T12:14:06.594Z,13.00
2019-04-30T12:16:33.772Z,13.20
2019-04-30T12:19:01.516Z,13.30
2019-04-30T12:21:27.837Z,13.40
2019-04-30T12:23:54.072Z,13.50
2019-04-30T12:26:21.739Z,13.60
2019-04-30T12:28:49.903Z,13.70
2019-04-30T12:31:16.184Z,13.80
2019-04-30T12:33:42.427Z,13.90
2019-04-30T12:36:09.114Z,14.00
2019-04-30T12:38:35.400Z,14.10
2019-04-30T12:41:01.790Z,14.10
2019-04-30T12:43:28.023Z,14.20
2019-04-30T12:46:02.789Z,14.10
2019-04-30T12:48:41.182Z,14.00
2019-04-30T12:51:18.238Z,13.90
2019-04-30T12:53:58.424Z,13.80
2019-04-30T12:56:29.210Z,13.70
2019-04-30T12:58:55.432Z,13.60
2019-04-30T13:01:21.773Z,13.40
2019-04-30T13:03:56.640Z,13.40
2019-04-30T13:06:16.953Z,13.30
2019-04-30T13:08:44.085Z,13.20
2019-04-30T13:11:13.112Z,13.20
2019-04-30T13:13:41.737Z,13.20
2019-04-30T13:16:08.611Z,13.20
2019-04-30T13:18:34.764Z,13.20
2019-04-30T13:21:01.151Z,13.20
2019-04-30T13:23:27.472Z,13.10
2019-04-30T13:25:53.707Z,13.10
2019-04-30T13:28:21.867Z,13.10
2019-04-30T13:30:49.428Z,13.10
2019-04-30T13:33:20.555Z,13.20
2019-04-30T13:35:48.871Z,13.30
2019-04-30T13:38:45.135Z,13.40
2019-04-30T13:41:08.887Z,13.50
2019-04-30T13:43:55.475Z,13.50
2019-04-30T13:46:23.013Z,13.60
2019-04-30T13:48:49.243Z,13.70
2019-04-30T13:51:15.490Z,13.70
2019-04-30T13:53:41.754Z,13.90
2019-04-30T13:56:08.831Z,14.00
2019-04-30T13:58:35.135Z,14.10
2019-04-30T14:01:01.733Z,14.10
2019-04-30T14:03:32.735Z,14.20
2019-04-30T14:05:59.468Z,14.20
2019-04-30T14:08:38.748Z,14.20
2019-04-30T14:11:05.282Z,14.20
2019-04-30T14:13:31.717Z,14.10
2019-04-30T14:15:58.046Z,14.10
2019-04-30T14:18:30.599Z,14.00
2019-04-30T14:20:52.675Z,14.10
2019-04-30T14:23:18.919Z,14.10
2019-04-30T14:25:56.255Z,14.20
2019-04-30T14:28:16.333Z,14.30
2019-04-30T14:30:42.797Z,14.30
2019-04-30T14:33:09.517Z,14.30
2019-04-30T14:35:35.849Z,14.30
2019-04-30T14:38:04.974Z,14.30
2019-04-30T14:40:31.219Z,14.30
2019-04-30T14:43:03.053Z,14.30
2019-04-30T14:45:31.848Z,14.30
2019-04-30T14:48:01.363Z,14.30
2019-04-30T14:50:32.716Z,14.30
2019-04-30T14:53:06.940Z,14.30
2019-04-30T14:55:51.621Z,14.30
2019-04-30T14:58:36.402Z,14.30
2019-04-30T15:01:11.047Z,14.20
2019-04-30T15:03:39.368Z,14.20
2019-04-30T15:06:05.615Z,14.10
2019-04-30T15:08:31.994Z,14.10
2019-04-30T15:10:58.226Z,14.00
2019-04-30T15:13:24.664Z,13.90
2019-04-30T15:15:50.996Z,13.90
2019-04-30T15:18:19.179Z,13.90
2019-04-30T15:20:49.751Z,13.90
2019-04-30T15:23:36.028Z,13.80
2019-04-30T15:26:02.506Z,13.80
2019-04-30T15:28:32.195Z,13.70
2019-04-30T15:30:58.674Z,13.70
2019-04-30T15:33:33.016Z,13.70
2019-04-30T15:35:59.902Z,13.60
2019-04-30T15:38:45.006Z,13.60
2019-04-30T15:41:11.246Z,13.60
2019-04-30T15:43:37.499Z,13.70
2019-04-30T15:46:03.921Z,13.70
2019-04-30T15:48:30.300Z,13.70
2019-04-30T15:50:56.539Z,13.70
2019-04-30T15:53:22.773Z,13.70
2019-04-30T15:55:48.995Z,13.70
2019-04-30T15:58:20.339Z,13.70
2019-04-30T16:00:46.613Z,13.70
2019-04-30T16:03:14.760Z,13.70
2019-04-30T16:05:51.217Z,13.70
2019-04-30T16:08:19.365Z,13.70
2019-04-30T16:10:50.643Z,13.70
2019-04-30T16:13:21.905Z,13.60
2019-04-30T16:15:49.197Z,13.60
2019-04-30T16:18:15.572Z,13.50
2019-04-30T16:20:41.865Z,13.50
2019-04-30T16:23:09.144Z,13.50
2019-04-30T16:25:35.632Z,13.40
2019-04-30T16:28:01.974Z,13.40
2019-04-30T16:30:28.939Z,13.40
2019-04-30T16:33:02.800Z,13.40
2019-04-30T16:35:29.571Z,13.30
2019-04-30T16:37:56.045Z,13.30
2019-04-30T16:40:22.275Z,13.20
2019-04-30T16:42:49.056Z,13.20
2019-04-30T16:45:15.692Z,13.20
2019-04-30T16:47:41.921Z,13.20
2019-04-30T16:50:29.876Z,13.10
2019-04-30T16:52:56.267Z,13.10
2019-04-30T16:55:22.532Z,13.10
2019-04-30T16:57:49.839Z,13.10
2019-04-30T17:00:20.020Z,13.00
2019-04-30T17:02:49.688Z,13.00
2019-04-30T17:05:24.379Z,13.00
2019-04-30T17:07:55.448Z,13.00
2019-04-30T17:10:23.634Z,12.90
2019-04-30T17:13:09.269Z,12.90
2019-04-30T17:15:43.527Z,12.90
2019-04-30T17:18:11.944Z,12.90
2019-04-30T17:20:39.633Z,12.90
2019-04-30T17:23:05.882Z,12.90
2019-04-30T17:25:32.181Z,12.90
2019-04-30T17:28:01.341Z,12.90
2019-04-30T17:30:26.583Z,12.90
2019-04-30T17:32:52.860Z,12.80
2019-04-30T17:35:19.237Z,12.80
2019-04-30T17:37:45.540Z,12.80
2019-04-30T17:40:13.247Z,12.70
2019-04-30T17:42:39.506Z,12.70
2019-04-30T17:45:09.482Z,12.70
2019-04-30T17:47:35.876Z,12.60
2019-04-30T17:50:05.621Z,12.60
2019-04-30T17:52:31.862Z,12.60
2019-04-30T17:54:59.505Z,12.50
2019-04-30T17:57:32.326Z,12.40
2019-04-30T17:59:54.116Z,12.30
2019-04-30T18:02:22.377Z,12.30
2019-04-30T18:04:48.741Z,12.20
2019-04-30T18:07:34.879Z,12.10
2019-04-30T18:10:08.759Z,12.10
2019-04-30T18:12:35.311Z,12.00
2019-04-30T18:15:06.719Z,11.90
2019-04-30T18:17:33.053Z,11.80
2019-04-30T18:20:01.309Z,11.80
2019-04-30T18:22:29.574Z,11.70
2019-04-30T18:24:59.271Z,11.60
2019-04-30T18:27:42.668Z,11.60
2019-04-30T18:29:58.553Z,11.50
2019-04-30T18:32:29.572Z,11.40
2019-04-30T18:34:55.874Z,11.40
2019-04-30T18:37:22.312Z,11.30
2019-04-30T18:39:48.533Z,11.30
2019-04-30T18:42:15.425Z,11.30
2019-04-30T18:44:42.064Z,11.20
2019-04-30T18:47:09.250Z,11.20
2019-04-30T18:49:36.420Z,11.20
2019-04-30T18:52:04.160Z,11.10
2019-04-30T18:54:32.038Z,11.10
2019-04-30T18:56:59.897Z,11.10
2019-04-30T18:59:27.845Z,11.10
2019-04-30T19:01:55.593Z,11.10
2019-04-30T19:04:23.601Z,11.10
2019-04-30T19:06:53.533Z,11.00
2019-04-30T19:09:26.369Z,11.10
2019-04-30T19:11:56.176Z,11.10
2019-04-30T19:14:43.304Z,11.10
2019-04-30T19:17:15.927Z,11.10
2019-04-30T19:19:45.381Z,11.10
2019-04-30T19:22:13.633Z,11.10
2019-04-30T19:24:53.356Z,11.10
2019-04-30T19:27:11.453Z,11.10
2019-04-30T19:29:39.471Z,11.10
2019-04-30T19:32:09.404Z,11.20
2019-04-30T19:34:39.042Z,11.20
2019-04-30T19:37:08.650Z,11.20
2019-04-30T19:39:36.884Z,11.20
2019-04-30T19:42:04.725Z,11.20
2019-04-30T19:44:33.214Z,11.20
2019-04-30T19:47:01.446Z,11.20
2019-04-30T19:49:29.428Z,11.10
2019-04-30T19:52:06.237Z,11.10
2019-04-30T19:54:29.404Z,11.10
2019-04-30T19:56:58.588Z,11.10
2019-04-30T19:59:26.640Z,11.10
2019-04-30T20:01:54.675Z,11.10
2019-04-30T20:04:32.642Z,11.10
2019-04-30T20:06:52.366Z,11.10
2019-04-30T20:09:20.268Z,11.00
2019-04-30T20:11:49.284Z,11.00
2019-04-30T20:14:18.643Z,11.00
2019-04-30T20:16:48.377Z,11.00
2019-04-30T20:19:16.494Z,11.00
2019-04-30T20:21:51.344Z,11.00
2019-04-30T20:24:19.094Z,11.00
2019-04-30T20:26:50.229Z,11.00
2019-04-30T20:29:20.564Z,11.00
2019-04-30T20:31:48.794Z,11.00
2019-04-30T20:34:19.212Z,11.10
2019-04-30T20:36:47.261Z,11.10
2019-04-30T20:39:19.671Z,11.00
2019-04-30T20:41:48.974Z,11.00
2019-04-30T20:44:18.916Z,11.00
2019-04-30T20:46:49.005Z,11.10
2019-04-30T20:49:16.645Z,11.10
2019-04-30T20:51:54.917Z,11.10
2019-04-30T20:54:14.405Z,11.10
2019-04-30T20:56:42.342Z,11.00
2019-04-30T20:59:10.831Z,11.10
2019-04-30T21:01:39.439Z,11.00
2019-04-30T21:04:07.679Z,11.00
2019-04-30T21:06:35.613Z,11.00
2019-04-30T21:09:05.240Z,11.00
2019-04-30T21:11:32.875Z,11.00
2019-04-30T21:14:00.606Z,11.00
2019-04-30T21:16:27.892Z,11.00
2019-04-30T21:18:54.600Z,11.00
2019-04-30T21:21:20.850Z,11.00
2019-04-30T21:23:49.065Z,11.00
2019-04-30T21:26:15.327Z,11.00
2019-04-30T21:28:41.572Z,11.00
2019-04-30T21:31:26.285Z,11.00
2019-04-30T21:33:54.451Z,11.00
2019-04-30T21:36:22.632Z,10.90
2019-04-30T21:38:49.130Z,10.90
2019-04-30T21:41:15.437Z,10.90
2019-04-30T21:43:41.687Z,10.90
2019-04-30T21:46:09.519Z,10.90
2019-04-30T21:48:35.864Z,10.90
2019-04-30T21:51:02.322Z,10.90
2019-04-30T21:53:29.462Z,10.80
2019-04-30T21:55:55.902Z,10.80
2019-04-30T21:58:22.138Z,10.80
2019-04-30T22:01:07.914Z,10.80
2019-04-30T22:03:34.274Z,10.80
2019-04-30T22:06:00.507Z,10.80
2019-04-30T22:08:28.670Z,10.80
2019-04-30T22:10:54.924Z,10.80
2019-04-30T22:13:21.153Z,10.80
2019-04-30T22:15:47.394Z,10.70
2019-04-30T22:18:13.634Z,10.70
2019-04-30T22:20:39.881Z,10.70
2019-04-30T22:23:06.131Z,10.70
2019-04-30T22:25:32.344Z,10.70
2019-04-30T22:27:58.610Z,10.70
2019-04-30T22:30:24.862Z,10.70
2019-04-30T22:32:51.097Z,10.70
2019-04-30T22:35:27.970Z,10.70
2019-04-30T22:37:56.157Z,10.70
2019-04-30T22:40:22.393Z,10.70
2019-04-30T22:42:49.520Z,10.60
2019-04-30T22:45:18.113Z,10.60
2019-04-30T22:47:44.349Z,10.60
2019-04-30T22:50:11.123Z,10.50
2019-04-30T22:52:38.454Z,10.50
2019-04-30T22:55:06.886Z,10.50
2019-04-30T22:57:33.135Z,10.40
2019-04-30T22:59:59.463Z,10.40
2019-04-30T23:02:33.529Z,10.40
2019-04-30T23:05:01.581Z,10.30
2019-04-30T23:07:27.802Z,10.30
2019-04-30T23:09:54.039Z,10.20
2019-04-30T23:12:20.394Z,10.10
2019-04-30T23:14:46.648Z,10.00
2019-04-30T23:17:13.095Z,10.00
2019-04-30T23:19:39.932Z,9.90
2019-04-30T23:22:06.411Z,9.90
2019-04-30T23:24:32.705Z,9.80
2019-04-30T23:26:58.892Z,9.70
2019-04-30T23:29:25.132Z,9.70
2019-04-30T23:31:51.360Z,9.60
2019-04-30T23:34:18.402Z,9.60
2019-04-30T23:36:44.806Z,9.50
2019-04-30T23:39:11.231Z,9.40
2019-04-30T23:41:37.459Z,9.40
2019-04-30T23:44:03.704Z,9.30
2019-04-30T23:46:29.923Z,9.30
2019-04-30T23:48:56.197Z,9.20
2019-04-30T23:51:22.430Z,9.20
2019-04-30T23:53:48.759Z,9.10
2019-04-30T23:56:14.995Z,9.10
2019-04-30T23:58:41.224Z,9.10
